Parksley, VA

10:33 AM EDT on October 22, 2014 (GMT -0400)
County Rd | Change Station
CLOSE
Current Station
Personal Weather Station
Location: Parksley, VA
Elevation: 43 ft
Nearby Weather Stations

Elev 43 ft 37.79 °N, 75.63 °W | Updated 2 minutes ago

Overcast
Overcast
56.0 °F
Feels Like 56.0 °F
N
0.0
Wind Variable Wind from NNW
Gusts 0.0 mph

Today
High -- | Low -- °F
--% Chance of Precip.
Yesterday
High -- | Low -- °F
Precip. -- in
7:17 AM 6:15 PM
Waning Crescent, 2% visible
Pressure 29.80 in
Visibility 10.0 miles
Clouds Mostly Cloudy 700 ft
Overcast 1300 ft
Dew Point 53 °F
Humidity 91%
Rainfall 0.00 in
Snow Depth Not available.
UV 1 out of 12
Pollen 1.40 out of 12
Air Quality Not available.
Flu Activity Local Activity
METAR KMFV 221415Z AUTO 35008KT 300V020 10SM BKN007 OVC013 13/11 A2980 RMK AO2

More Conditions Fewer Conditions

Pressure 29.80 in
Visibility 10.0 miles
Clouds Mostly Cloudy 700 ft
Overcast 1300 ft
Dew Point 53 °F
Humidity 91%
Rainfall 0.00 in
Snow Depth Not available.
UV 1 out of 12
Pollen 1.40 out of 12
Air Quality Not available.
Flu Activity Local Activity
METAR KMFV 221415Z AUTO 35008KT 300V020 10SM BKN007 OVC013 13/11 A2980 RMK AO2

More Conditions Fewer Conditions

10-Day Weather Forecast

Almanac

Astronomy

Oct. 22, 2014 Rise Set
Actual Time 7:17 AM EDT 6:15 PM EDT
Civil Twilight 6:51 AM EDT 6:42 PM EDT
Nautical Twilight 6:20 AM EDT 7:13 PM EDT
Astronomical Twilight 5:50 AM EDT 7:43 PM EDT
Moon 5:58 AM EDT 5:40 PM EDT
Length of Visible Light 11h 51m
Length of Day
10h 58m
Tomorrow will be 2m 15s shorter.
Waning Crescent, 2% of the Moon is Illuminated
Today
Waning Crescent
Oct 23
New
Oct 30
First Quarter
Nov 6
Full
Nov 14
Last Quarter

Today's Extremes

State Highs State Lows

Community

WunderPhotos

Upload Photos

1,763,935 photos uploaded!

WunderBlogs® & News

Nearby

Snow Depth

Station Depth Elevation
No new snow has been reported.

Earthquake Activity

City Distance Mag. Time & Date
No recent earthquake activity has been reported nearby.
Minimum magnitude displayed is 2.5.

Coastal Water Temperatures

Place Temperature
Wachapreague, VA 63.0 °F
Lewisetta, VA 63.0 °F
Bishops Head, MD 60.1 °F

Nearby Weather Stations